NBL988 NZWN-YSNF
Flight info
| Callsign | NBL988 |
|---|---|
| Flight time | 2h 12m |
| Altitude | 35000 |
| Route | NZWN/34 N0443F350 IPKE2P ATVIN Y631 MEVAX H499 OMKUN Y655 POKOM Q277 AA G591 ABVOM DCT YSNF/29 |
| Aircraft | B738/M-SDE2E3FGHIRWXY/LB1 |
Departure
| Time | 2026-04-17 02:11 |
|---|---|
| Airport | Wellington International Airport (NZWN) |
Arrival
| Time | 2026-04-17 04:23 |
|---|---|
| Airport | Norfolk Island International Airport (YSNF) |
| Time | Latitude | Longitude | Altitude | Speed | Heading |
|---|---|---|---|---|---|
| 2026-04-17 01:45 | -41.32767 | 174.80977 | 31 ft | 0 kts | 141° |
| 2026-04-17 02:07 | -41.32802 | 174.80950 | 25 ft | 22 kts | 245° |
| 2026-04-17 02:08 | -41.32884 | 174.80806 | 27 ft | 24 kts | 188° |
| 2026-04-17 02:08 | -41.33092 | 174.80792 | 27 ft | 37 kts | 182° |
| 2026-04-17 02:08 | -41.33341 | 174.80778 | 28 ft | 28 kts | 182° |
| 2026-04-17 02:08 | -41.33499 | 174.80771 | 29 ft | 15 kts | 182° |
| 2026-04-17 02:09 | -41.33522 | 174.80765 | 27 ft | 0 kts | 198° |
| 2026-04-17 02:09 | -41.33523 | 174.80765 | 26 ft | 0 kts | 198° |
| 2026-04-17 02:10 | -41.33547 | 174.80749 | 27 ft | 11 kts | 212° |
| 2026-04-17 02:10 | -41.33566 | 174.80648 | 30 ft | 14 kts | 297° |
| 2026-04-17 02:10 | -41.33524 | 174.80621 | 26 ft | 6 kts | 5° |
| 2026-04-17 02:10 | -41.33274 | 174.80651 | 29 ft | 72 kts | 3° |
| 2026-04-17 02:11 | -41.32546 | 174.80692 | 31 ft | 138 kts | 1° |
| 2026-04-17 02:11 | -41.31460 | 174.80792 | 456 ft | 166 kts | 4° |
| 2026-04-17 02:11 | -41.30263 | 174.80936 | 1140 ft | 182 kts | 359° |
| 2026-04-17 02:11 | -41.28994 | 174.81005 | 1953 ft | 184 kts | 355° |
| 2026-04-17 02:12 | -41.27699 | 174.81045 | 2716 ft | 186 kts | 349° |
| 2026-04-17 02:12 | -41.26503 | 174.80486 | 3434 ft | 184 kts | 323° |
| 2026-04-17 02:12 | -41.25590 | 174.79290 | 4138 ft | 189 kts | 303° |
| 2026-04-17 02:12 | -41.25114 | 174.77553 | 4432 ft | 216 kts | 291° |
| 2026-04-17 02:13 | -41.24221 | 174.75873 | 4785 ft | 239 kts | 321° |
| 2026-04-17 02:13 | -41.22810 | 174.74536 | 5284 ft | 258 kts | 315° |
| 2026-04-17 02:13 | -41.21507 | 174.72784 | 5895 ft | 274 kts | 313° |
| 2026-04-17 02:13 | -41.20164 | 174.70886 | 6546 ft | 288 kts | 312° |
| 2026-04-17 02:14 | -41.18722 | 174.68976 | 7303 ft | 294 kts | 315° |
| 2026-04-17 02:14 | -41.16983 | 174.67609 | 8424 ft | 294 kts | 341° |
| 2026-04-17 02:14 | -41.14989 | 174.67270 | 9717 ft | 285 kts | 351° |
| 2026-04-17 02:14 | -41.13027 | 174.67236 | 10663 ft | 282 kts | 353° |
| 2026-04-17 02:15 | -41.11003 | 174.67269 | 10968 ft | 302 kts | 354° |
| 2026-04-17 02:15 | -41.08829 | 174.67309 | 11147 ft | 324 kts | 354° |
| 2026-04-17 02:15 | -41.06504 | 174.67344 | 11319 ft | 344 kts | 354° |
| 2026-04-17 02:15 | -41.04044 | 174.67373 | 11555 ft | 361 kts | 354° |
| 2026-04-17 02:16 | -41.01510 | 174.67399 | 12053 ft | 369 kts | 354° |
| 2026-04-17 02:16 | -40.98916 | 174.67420 | 12635 ft | 374 kts | 354° |
| 2026-04-17 02:16 | -40.96307 | 174.67434 | 13262 ft | 378 kts | 354° |
| 2026-04-17 02:16 | -40.93660 | 174.67444 | 13853 ft | 382 kts | 354° |
| 2026-04-17 02:17 | -40.90982 | 174.67452 | 14402 ft | 386 kts | 354° |
| 2026-04-17 02:17 | -40.88282 | 174.67458 | 14975 ft | 389 kts | 354° |
| 2026-04-17 02:17 | -40.85597 | 174.67464 | 15540 ft | 392 kts | 354° |
| 2026-04-17 02:17 | -40.82822 | 174.67471 | 16089 ft | 396 kts | 354° |
| 2026-04-17 02:18 | -40.80087 | 174.67478 | 16621 ft | 400 kts | 354° |
| 2026-04-17 02:18 | -40.77262 | 174.67486 | 17123 ft | 404 kts | 354° |
| 2026-04-17 02:18 | -40.74467 | 174.67492 | 17606 ft | 409 kts | 354° |
| 2026-04-17 02:18 | -40.71611 | 174.67490 | 18155 ft | 411 kts | 354° |
| 2026-04-17 02:19 | -40.68740 | 174.67430 | 18637 ft | 413 kts | 353° |
| 2026-04-17 02:19 | -40.65822 | 174.67337 | 19092 ft | 416 kts | 353° |
| 2026-04-17 02:19 | -40.62950 | 174.67236 | 19540 ft | 420 kts | 353° |
| 2026-04-17 02:19 | -40.60016 | 174.67134 | 19989 ft | 423 kts | 353° |
| 2026-04-17 02:20 | -40.57060 | 174.67036 | 20435 ft | 426 kts | 353° |
| 2026-04-17 02:20 | -40.54093 | 174.66942 | 20866 ft | 429 kts | 353° |
| 2026-04-17 02:20 | -40.51094 | 174.66850 | 21287 ft | 432 kts | 353° |
| 2026-04-17 02:20 | -40.48102 | 174.66750 | 22025 ft | 426 kts | 352° |
| 2026-04-17 02:21 | -40.45115 | 174.66655 | 22288 ft | 434 kts | 353° |
| 2026-04-17 02:21 | -40.42070 | 174.66566 | 22482 ft | 442 kts | 353° |
| 2026-04-17 02:21 | -40.38978 | 174.66479 | 22873 ft | 445 kts | 353° |
| 2026-04-17 02:21 | -40.35872 | 174.66394 | 23314 ft | 447 kts | 353° |
| 2026-04-17 02:22 | -40.32751 | 174.66306 | 23639 ft | 450 kts | 352° |
| 2026-04-17 02:22 | -40.29607 | 174.66216 | 23945 ft | 453 kts | 352° |
| 2026-04-17 02:22 | -40.26461 | 174.66125 | 24303 ft | 454 kts | 352° |
| 2026-04-17 02:22 | -40.23340 | 174.66035 | 24671 ft | 455 kts | 352° |
| 2026-04-17 02:23 | -40.20169 | 174.65943 | 25011 ft | 456 kts | 352° |
| 2026-04-17 02:23 | -40.16985 | 174.65849 | 25324 ft | 458 kts | 352° |
| 2026-04-17 02:23 | -40.13787 | 174.65756 | 25635 ft | 460 kts | 352° |
| 2026-04-17 02:23 | -40.10589 | 174.65662 | 25930 ft | 462 kts | 352° |
| 2026-04-17 02:24 | -40.07369 | 174.65568 | 26226 ft | 463 kts | 352° |
| 2026-04-17 02:24 | -40.04137 | 174.65473 | 26514 ft | 465 kts | 352° |
| 2026-04-17 02:24 | -40.00894 | 174.65379 | 26810 ft | 467 kts | 352° |
| 2026-04-17 02:24 | -39.97639 | 174.65284 | 27099 ft | 468 kts | 352° |
| 2026-04-17 02:25 | -39.94384 | 174.65190 | 27370 ft | 470 kts | 352° |
| 2026-04-17 02:25 | -39.91107 | 174.65095 | 27644 ft | 471 kts | 352° |
| 2026-04-17 02:25 | -39.87820 | 174.65000 | 27888 ft | 473 kts | 352° |
| 2026-04-17 02:25 | -39.84535 | 174.64905 | 28197 ft | 473 kts | 352° |
| 2026-04-17 02:26 | -39.81245 | 174.64811 | 28615 ft | 471 kts | 352° |
| 2026-04-17 02:26 | -39.77972 | 174.64718 | 29054 ft | 469 kts | 352° |
| 2026-04-17 02:26 | -39.74724 | 174.64621 | 29452 ft | 467 kts | 351° |
| 2026-04-17 02:26 | -39.71527 | 174.64157 | 29790 ft | 458 kts | 341° |
| 2026-04-17 02:27 | -39.68485 | 174.63072 | 30131 ft | 449 kts | 333° |
| 2026-04-17 02:27 | -39.65660 | 174.61444 | 30388 ft | 441 kts | 326° |
| 2026-04-17 02:27 | -39.62968 | 174.59564 | 30672 ft | 441 kts | 326° |
| 2026-04-17 02:27 | -39.60255 | 174.57707 | 30968 ft | 440 kts | 326° |
| 2026-04-17 02:28 | -39.57537 | 174.55884 | 31303 ft | 438 kts | 326° |
| 2026-04-17 02:28 | -39.54828 | 174.54080 | 31633 ft | 437 kts | 326° |
| 2026-04-17 02:28 | -39.52096 | 174.52365 | 31911 ft | 441 kts | 333° |
| 2026-04-17 02:28 | -39.49106 | 174.51280 | 32159 ft | 451 kts | 343° |
| 2026-04-17 02:29 | -39.45998 | 174.50882 | 32460 ft | 458 kts | 353° |
| 2026-04-17 02:29 | -39.42745 | 174.51205 | 32718 ft | 466 kts | 2° |
| 2026-04-17 02:29 | -39.39584 | 174.51841 | 32938 ft | 468 kts | 3° |
| 2026-04-17 02:29 | -39.36368 | 174.52531 | 33171 ft | 468 kts | 3° |
| 2026-04-17 02:30 | -39.33167 | 174.53210 | 33469 ft | 466 kts | 2° |
| 2026-04-17 02:30 | -39.29965 | 174.53864 | 33772 ft | 464 kts | 2° |
| 2026-04-17 02:30 | -39.26770 | 174.54492 | 34036 ft | 463 kts | 2° |
| 2026-04-17 02:30 | -39.23578 | 174.55105 | 34228 ft | 463 kts | 2° |
| 2026-04-17 02:31 | -39.20385 | 174.55713 | 34379 ft | 463 kts | 2° |
| 2026-04-17 02:31 | -39.17191 | 174.56321 | 34563 ft | 464 kts | 2° |
| 2026-04-17 02:31 | -39.14009 | 174.56929 | 34769 ft | 463 kts | 2° |
| 2026-04-17 02:31 | -39.10821 | 174.57539 | 34971 ft | 462 kts | 2° |
| 2026-04-17 02:32 | -39.07633 | 174.58144 | 35137 ft | 463 kts | 2° |
| 2026-04-17 02:32 | -39.01234 | 174.59352 | 35153 ft | 465 kts | 2° |
| 2026-04-17 02:33 | -38.94845 | 174.60562 | 35166 ft | 461 kts | 2° |
| 2026-04-17 02:33 | -38.88539 | 174.61755 | 35173 ft | 458 kts | 2° |
| 2026-04-17 02:34 | -38.82246 | 174.62941 | 35172 ft | 456 kts | 2° |
| 2026-04-17 02:34 | -38.75962 | 174.64121 | 35155 ft | 456 kts | 2° |
| 2026-04-17 02:35 | -38.69676 | 174.65301 | 35181 ft | 457 kts | 2° |
| 2026-04-17 02:35 | -38.60201 | 174.67072 | 35196 ft | 460 kts | 2° |
| 2026-04-17 02:36 | -38.53856 | 174.68256 | 35204 ft | 462 kts | 2° |
| 2026-04-17 02:36 | -38.47484 | 174.69450 | 35192 ft | 464 kts | 2° |
| 2026-04-17 02:37 | -38.41077 | 174.70644 | 35197 ft | 466 kts | 2° |
| 2026-04-17 02:37 | -38.34661 | 174.71837 | 35202 ft | 467 kts | 2° |
| 2026-04-17 02:38 | -38.28236 | 174.73030 | 35203 ft | 467 kts | 2° |
| 2026-04-17 02:38 | -38.21797 | 174.74224 | 35200 ft | 467 kts | 2° |
| 2026-04-17 02:39 | -38.15407 | 174.75406 | 35201 ft | 466 kts | 2° |
| 2026-04-17 02:39 | -38.09000 | 174.76590 | 35200 ft | 465 kts | 2° |
| 2026-04-17 02:40 | -38.02616 | 174.77767 | 35200 ft | 463 kts | 2° |
| 2026-04-17 02:40 | -37.96244 | 174.78939 | 35208 ft | 461 kts | 2° |
| 2026-04-17 02:41 | -37.89899 | 174.80105 | 35203 ft | 460 kts | 2° |
| 2026-04-17 02:41 | -37.83561 | 174.80833 | 35187 ft | 453 kts | 354° |
| 2026-04-17 02:42 | -37.77278 | 174.80823 | 35211 ft | 451 kts | 354° |
| 2026-04-17 02:42 | -37.72054 | 174.80823 | 35215 ft | 452 kts | 354° |
| 2026-04-17 02:43 | -37.65762 | 174.80898 | 35218 ft | 453 kts | 354° |
| 2026-04-17 02:43 | -37.59445 | 174.80992 | 35204 ft | 454 kts | 354° |
| 2026-04-17 02:44 | -37.53128 | 174.81060 | 35214 ft | 454 kts | 354° |
| 2026-04-17 02:44 | -37.46790 | 174.81111 | 35222 ft | 455 kts | 354° |
| 2026-04-17 02:45 | -37.40449 | 174.81163 | 35221 ft | 456 kts | 354° |
| 2026-04-17 02:45 | -37.34128 | 174.81219 | 35204 ft | 457 kts | 354° |
| 2026-04-17 02:46 | -37.27773 | 174.81276 | 35216 ft | 457 kts | 354° |
| 2026-04-17 02:46 | -37.21404 | 174.81333 | 35225 ft | 457 kts | 354° |
| 2026-04-17 02:47 | -37.15043 | 174.81389 | 35223 ft | 457 kts | 354° |
| 2026-04-17 02:47 | -37.08674 | 174.81409 | 35228 ft | 457 kts | 354° |
| 2026-04-17 02:48 | -37.02363 | 174.81045 | 35225 ft | 447 kts | 342° |
| 2026-04-17 02:48 | -36.96662 | 174.78390 | 35215 ft | 432 kts | 323° |
| 2026-04-17 02:49 | -36.91698 | 174.74303 | 35225 ft | 429 kts | 321° |
| 2026-04-17 02:49 | -36.86723 | 174.70158 | 35206 ft | 430 kts | 321° |
| 2026-04-17 02:50 | -36.81733 | 174.66059 | 35217 ft | 429 kts | 322° |
| 2026-04-17 02:50 | -36.76726 | 174.61977 | 35230 ft | 430 kts | 322° |
| 2026-04-17 02:51 | -36.71711 | 174.57899 | 35233 ft | 430 kts | 322° |
| 2026-04-17 02:51 | -36.66699 | 174.53829 | 35233 ft | 431 kts | 322° |
| 2026-04-17 02:52 | -36.61671 | 174.49751 | 35210 ft | 431 kts | 322° |
| 2026-04-17 02:52 | -36.56673 | 174.45703 | 35233 ft | 431 kts | 322° |
| 2026-04-17 02:53 | -36.51644 | 174.41638 | 35237 ft | 431 kts | 322° |
| 2026-04-17 02:53 | -36.46599 | 174.37569 | 35235 ft | 432 kts | 322° |
| 2026-04-17 02:54 | -36.41558 | 174.33511 | 35235 ft | 432 kts | 322° |
| 2026-04-17 02:54 | -36.36514 | 174.29453 | 35225 ft | 432 kts | 322° |
| 2026-04-17 02:55 | -36.31459 | 174.25393 | 35228 ft | 432 kts | 322° |
| 2026-04-17 02:55 | -36.26435 | 174.21367 | 35238 ft | 432 kts | 322° |
| 2026-04-17 02:56 | -36.21348 | 174.17299 | 35239 ft | 433 kts | 322° |
| 2026-04-17 02:56 | -36.16315 | 174.13279 | 35238 ft | 433 kts | 322° |
| 2026-04-17 02:57 | -36.11253 | 174.09241 | 35238 ft | 433 kts | 322° |
| 2026-04-17 02:57 | -36.06173 | 174.05195 | 35235 ft | 433 kts | 322° |
| 2026-04-17 02:58 | -36.01101 | 174.01161 | 35243 ft | 433 kts | 322° |
| 2026-04-17 02:58 | -35.96036 | 173.97139 | 35241 ft | 433 kts | 322° |
| 2026-04-17 02:59 | -35.90968 | 173.93121 | 35243 ft | 433 kts | 322° |
| 2026-04-17 02:59 | -35.85891 | 173.89102 | 35243 ft | 433 kts | 322° |
| 2026-04-17 03:00 | -35.80847 | 173.85115 | 35245 ft | 433 kts | 322° |
| 2026-04-17 03:00 | -35.75777 | 173.81114 | 35246 ft | 433 kts | 322° |
| 2026-04-17 03:01 | -35.70709 | 173.77120 | 35245 ft | 433 kts | 322° |
| 2026-04-17 03:01 | -35.65633 | 173.73126 | 35253 ft | 432 kts | 322° |
| 2026-04-17 03:02 | -35.60567 | 173.69145 | 35235 ft | 432 kts | 322° |
| 2026-04-17 03:02 | -35.55493 | 173.65164 | 35239 ft | 432 kts | 323° |
| 2026-04-17 03:03 | -35.50424 | 173.61187 | 35248 ft | 432 kts | 322° |
| 2026-04-17 03:03 | -35.45370 | 173.57214 | 35252 ft | 432 kts | 322° |
| 2026-04-17 03:04 | -35.40295 | 173.53245 | 35252 ft | 432 kts | 323° |
| 2026-04-17 03:04 | -35.35256 | 173.49316 | 35251 ft | 433 kts | 323° |
| 2026-04-17 03:05 | -35.30167 | 173.45352 | 35241 ft | 433 kts | 323° |
| 2026-04-17 03:05 | -35.25086 | 173.41399 | 35253 ft | 433 kts | 323° |
| 2026-04-17 03:06 | -35.20000 | 173.37446 | 35252 ft | 434 kts | 323° |
| 2026-04-17 03:06 | -35.14898 | 173.33488 | 35252 ft | 434 kts | 323° |
| 2026-04-17 03:07 | -35.09801 | 173.29539 | 35256 ft | 434 kts | 323° |
| 2026-04-17 03:07 | -35.04699 | 173.25592 | 35234 ft | 434 kts | 323° |
| 2026-04-17 03:08 | -34.99775 | 173.21370 | 35261 ft | 430 kts | 317° |
| 2026-04-17 03:08 | -34.95113 | 173.16799 | 35254 ft | 430 kts | 316° |
| 2026-04-17 03:09 | -34.90449 | 173.12212 | 35255 ft | 431 kts | 317° |
| 2026-04-17 03:09 | -34.85755 | 173.07657 | 35259 ft | 431 kts | 317° |
| 2026-04-17 03:10 | -34.81050 | 173.03126 | 35261 ft | 432 kts | 317° |
| 2026-04-17 03:10 | -34.76361 | 172.98623 | 35253 ft | 432 kts | 317° |
| 2026-04-17 03:11 | -34.71645 | 172.94101 | 35258 ft | 432 kts | 317° |
| 2026-04-17 03:11 | -34.66918 | 172.89573 | 35263 ft | 432 kts | 317° |
| 2026-04-17 03:12 | -34.62192 | 172.85054 | 35264 ft | 433 kts | 317° |
| 2026-04-17 03:12 | -34.57454 | 172.80529 | 35264 ft | 433 kts | 317° |
| 2026-04-17 03:13 | -34.52720 | 172.76015 | 35258 ft | 433 kts | 317° |
| 2026-04-17 03:13 | -34.47975 | 172.71498 | 35253 ft | 433 kts | 317° |
| 2026-04-17 03:14 | -34.43240 | 172.66996 | 35269 ft | 433 kts | 317° |
| 2026-04-17 03:14 | -34.38502 | 172.62497 | 35258 ft | 433 kts | 317° |
| 2026-04-17 03:15 | -34.33788 | 172.58028 | 35262 ft | 433 kts | 317° |
| 2026-04-17 03:15 | -34.29042 | 172.53534 | 35264 ft | 433 kts | 317° |
| 2026-04-17 03:16 | -34.24303 | 172.49055 | 35239 ft | 433 kts | 317° |
| 2026-04-17 03:16 | -34.19563 | 172.44588 | 35258 ft | 432 kts | 317° |
| 2026-04-17 03:17 | -34.14814 | 172.40117 | 35265 ft | 432 kts | 317° |
| 2026-04-17 03:17 | -34.10069 | 172.35654 | 35262 ft | 433 kts | 317° |
| 2026-04-17 03:18 | -34.05309 | 172.31183 | 35265 ft | 433 kts | 317° |
| 2026-04-17 03:18 | -34.00551 | 172.26720 | 35265 ft | 434 kts | 317° |
| 2026-04-17 03:19 | -33.95786 | 172.22259 | 35242 ft | 434 kts | 317° |
| 2026-04-17 03:19 | -33.91043 | 172.17823 | 35258 ft | 434 kts | 317° |
| 2026-04-17 03:20 | -33.86263 | 172.13359 | 35267 ft | 435 kts | 317° |
| 2026-04-17 03:20 | -33.81483 | 172.08901 | 35265 ft | 435 kts | 317° |
| 2026-04-17 03:21 | -33.76696 | 172.04444 | 35264 ft | 436 kts | 317° |
| 2026-04-17 03:21 | -33.71895 | 171.99981 | 35263 ft | 436 kts | 317° |
| 2026-04-17 03:22 | -33.67097 | 171.95527 | 35253 ft | 436 kts | 317° |
| 2026-04-17 03:22 | -33.62289 | 171.91070 | 35275 ft | 436 kts | 317° |
| 2026-04-17 03:23 | -33.57509 | 171.86645 | 35259 ft | 437 kts | 317° |
| 2026-04-17 03:23 | -33.52700 | 171.82200 | 35271 ft | 437 kts | 317° |
| 2026-04-17 03:24 | -33.47880 | 171.77751 | 35265 ft | 437 kts | 317° |
| 2026-04-17 03:24 | -33.43058 | 171.73306 | 35263 ft | 437 kts | 317° |
| 2026-04-17 03:25 | -33.38241 | 171.68873 | 35256 ft | 437 kts | 317° |
| 2026-04-17 03:25 | -33.33418 | 171.64441 | 35257 ft | 437 kts | 317° |
| 2026-04-17 03:26 | -33.28595 | 171.60015 | 35273 ft | 436 kts | 317° |
| 2026-04-17 03:26 | -33.23803 | 171.55622 | 35270 ft | 437 kts | 317° |
| 2026-04-17 03:27 | -33.18982 | 171.51210 | 35270 ft | 437 kts | 317° |
| 2026-04-17 03:27 | -33.14159 | 171.46802 | 35265 ft | 437 kts | 317° |
| 2026-04-17 03:28 | -33.09332 | 171.42398 | 35265 ft | 437 kts | 317° |
| 2026-04-17 03:28 | -33.04493 | 171.37989 | 35267 ft | 437 kts | 317° |
| 2026-04-17 03:29 | -32.99661 | 171.33592 | 35269 ft | 437 kts | 317° |
| 2026-04-17 03:29 | -32.94819 | 171.29192 | 35266 ft | 437 kts | 317° |
| 2026-04-17 03:30 | -32.90797 | 171.25542 | 35265 ft | 437 kts | 317° |
| 2026-04-17 03:30 | -32.85963 | 171.21161 | 35269 ft | 437 kts | 317° |
| 2026-04-17 03:31 | -32.81130 | 171.16787 | 35264 ft | 436 kts | 317° |
| 2026-04-17 03:31 | -32.76290 | 171.12413 | 35268 ft | 437 kts | 317° |
| 2026-04-17 03:32 | -32.71455 | 171.08049 | 35271 ft | 437 kts | 317° |
| 2026-04-17 03:32 | -32.66615 | 171.03686 | 35270 ft | 437 kts | 317° |
| 2026-04-17 03:33 | -32.61794 | 170.99348 | 35270 ft | 437 kts | 317° |
| 2026-04-17 03:33 | -32.56945 | 170.94989 | 35270 ft | 438 kts | 317° |
| 2026-04-17 03:34 | -32.52083 | 170.90626 | 35256 ft | 438 kts | 317° |
| 2026-04-17 03:34 | -32.47227 | 170.86274 | 35267 ft | 438 kts | 317° |
| 2026-04-17 03:35 | -32.42360 | 170.81918 | 35269 ft | 438 kts | 317° |
| 2026-04-17 03:35 | -32.37488 | 170.77562 | 35272 ft | 439 kts | 317° |
| 2026-04-17 03:36 | -32.30201 | 170.71061 | 35269 ft | 439 kts | 317° |
| 2026-04-17 03:37 | -32.25325 | 170.66718 | 35260 ft | 439 kts | 317° |
| 2026-04-17 03:37 | -32.20441 | 170.62374 | 35271 ft | 439 kts | 317° |
| 2026-04-17 03:38 | -32.15561 | 170.58039 | 35274 ft | 439 kts | 317° |
| 2026-04-17 03:38 | -32.10669 | 170.53699 | 35270 ft | 440 kts | 317° |
| 2026-04-17 03:39 | -32.05774 | 170.49362 | 35273 ft | 440 kts | 316° |
| 2026-04-17 03:39 | -32.00885 | 170.45037 | 35276 ft | 440 kts | 316° |
| 2026-04-17 03:40 | -31.96018 | 170.40736 | 35258 ft | 440 kts | 316° |
| 2026-04-17 03:40 | -31.91127 | 170.36420 | 35269 ft | 440 kts | 316° |
| 2026-04-17 03:41 | -31.86198 | 170.32080 | 35276 ft | 440 kts | 316° |
| 2026-04-17 03:41 | -31.81322 | 170.27790 | 35275 ft | 440 kts | 316° |
| 2026-04-17 03:42 | -31.76417 | 170.23480 | 35274 ft | 441 kts | 316° |
| 2026-04-17 03:42 | -31.71499 | 170.19163 | 35272 ft | 441 kts | 316° |
| 2026-04-17 03:43 | -31.66586 | 170.14856 | 35267 ft | 441 kts | 316° |
| 2026-04-17 03:43 | -31.61663 | 170.10547 | 35270 ft | 441 kts | 316° |
| 2026-04-17 03:44 | -31.56735 | 170.06238 | 35279 ft | 442 kts | 316° |
| 2026-04-17 03:44 | -31.51808 | 170.01936 | 35275 ft | 442 kts | 316° |
| 2026-04-17 03:45 | -31.46873 | 169.97633 | 35274 ft | 443 kts | 316° |
| 2026-04-17 03:45 | -31.41957 | 169.93354 | 35276 ft | 443 kts | 316° |
| 2026-04-17 03:46 | -31.36981 | 169.89027 | 35274 ft | 443 kts | 316° |
| 2026-04-17 03:46 | -31.32060 | 169.84754 | 35272 ft | 443 kts | 316° |
| 2026-04-17 03:47 | -31.27102 | 169.80454 | 35276 ft | 443 kts | 316° |
| 2026-04-17 03:47 | -31.22138 | 169.76157 | 35270 ft | 443 kts | 315° |
| 2026-04-17 03:48 | -31.17170 | 169.71859 | 35279 ft | 444 kts | 315° |
| 2026-04-17 03:48 | -31.12197 | 169.67563 | 35279 ft | 444 kts | 316° |
| 2026-04-17 03:49 | -31.07263 | 169.63307 | 35264 ft | 444 kts | 315° |
| 2026-04-17 03:49 | -31.02287 | 169.59021 | 35270 ft | 444 kts | 315° |
| 2026-04-17 03:50 | -30.97324 | 169.54752 | 35277 ft | 444 kts | 315° |
| 2026-04-17 03:50 | -30.92347 | 169.50476 | 35279 ft | 445 kts | 315° |
| 2026-04-17 03:51 | -30.87359 | 169.46196 | 35278 ft | 445 kts | 315° |
| 2026-04-17 03:51 | -30.82375 | 169.41926 | 35259 ft | 445 kts | 315° |
| 2026-04-17 03:52 | -30.77385 | 169.37656 | 35276 ft | 444 kts | 315° |
| 2026-04-17 03:52 | -30.74883 | 169.35513 | 34748 ft | 455 kts | 315° |
| 2026-04-17 03:52 | -30.72332 | 169.33327 | 34265 ft | 453 kts | 315° |
| 2026-04-17 03:52 | -30.69781 | 169.31150 | 33514 ft | 455 kts | 316° |
| 2026-04-17 03:53 | -30.67238 | 169.28982 | 32821 ft | 454 kts | 316° |
| 2026-04-17 03:53 | -30.64686 | 169.26809 | 32118 ft | 454 kts | 317° |
| 2026-04-17 03:53 | -30.62135 | 169.24637 | 31442 ft | 454 kts | 317° |
| 2026-04-17 03:53 | -30.59600 | 169.22482 | 30985 ft | 449 kts | 317° |
| 2026-04-17 03:54 | -30.57123 | 169.20378 | 30497 ft | 445 kts | 318° |
| 2026-04-17 03:54 | -30.54611 | 169.18244 | 29981 ft | 440 kts | 318° |
| 2026-04-17 03:54 | -30.52180 | 169.16180 | 29428 ft | 436 kts | 318° |
| 2026-04-17 03:54 | -30.49720 | 169.14092 | 28910 ft | 431 kts | 318° |
| 2026-04-17 03:55 | -30.47348 | 169.12080 | 28426 ft | 425 kts | 318° |
| 2026-04-17 03:55 | -30.44970 | 169.10063 | 27943 ft | 421 kts | 318° |
| 2026-04-17 03:55 | -30.42618 | 169.08069 | 27446 ft | 416 kts | 319° |
| 2026-04-17 03:55 | -30.40289 | 169.06095 | 26967 ft | 412 kts | 319° |
| 2026-04-17 03:56 | -30.37981 | 169.04140 | 26510 ft | 409 kts | 319° |
| 2026-04-17 03:56 | -30.35701 | 169.02210 | 26031 ft | 405 kts | 319° |
| 2026-04-17 03:56 | -30.33432 | 169.00290 | 25562 ft | 402 kts | 319° |
| 2026-04-17 03:56 | -30.31187 | 168.98392 | 25114 ft | 399 kts | 319° |
| 2026-04-17 03:57 | -30.28950 | 168.96502 | 24654 ft | 396 kts | 320° |
| 2026-04-17 03:57 | -30.26727 | 168.94625 | 24196 ft | 394 kts | 320° |
| 2026-04-17 03:57 | -30.24522 | 168.92763 | 23725 ft | 392 kts | 320° |
| 2026-04-17 03:57 | -30.22320 | 168.90906 | 23205 ft | 390 kts | 320° |
| 2026-04-17 03:58 | -30.20132 | 168.89062 | 22714 ft | 387 kts | 320° |
| 2026-04-17 03:58 | -30.17962 | 168.87234 | 22246 ft | 384 kts | 320° |
| 2026-04-17 03:58 | -30.15817 | 168.85429 | 21793 ft | 381 kts | 320° |
| 2026-04-17 03:58 | -30.13684 | 168.83634 | 21359 ft | 377 kts | 320° |
| 2026-04-17 03:59 | -30.11567 | 168.81854 | 20900 ft | 374 kts | 321° |
| 2026-04-17 03:59 | -30.09473 | 168.80094 | 20468 ft | 372 kts | 321° |
| 2026-04-17 03:59 | -30.07386 | 168.78341 | 20034 ft | 369 kts | 321° |
| 2026-04-17 03:59 | -30.05313 | 168.76600 | 19604 ft | 367 kts | 321° |
| 2026-04-17 04:00 | -30.03272 | 168.74887 | 19176 ft | 365 kts | 321° |
| 2026-04-17 04:00 | -30.01221 | 168.73166 | 18755 ft | 363 kts | 321° |
| 2026-04-17 04:00 | -29.99179 | 168.71454 | 18306 ft | 362 kts | 321° |
| 2026-04-17 04:00 | -29.97143 | 168.69749 | 17820 ft | 360 kts | 321° |
| 2026-04-17 04:01 | -29.95127 | 168.68060 | 17369 ft | 358 kts | 321° |
| 2026-04-17 04:01 | -29.93117 | 168.66378 | 16934 ft | 355 kts | 321° |
| 2026-04-17 04:01 | -29.91115 | 168.64704 | 16507 ft | 353 kts | 321° |
| 2026-04-17 04:01 | -29.89133 | 168.63046 | 16077 ft | 351 kts | 321° |
| 2026-04-17 04:02 | -29.87170 | 168.61405 | 15666 ft | 348 kts | 321° |
| 2026-04-17 04:02 | -29.85236 | 168.59791 | 15258 ft | 347 kts | 321° |
| 2026-04-17 04:02 | -29.83287 | 168.58163 | 14850 ft | 345 kts | 322° |
| 2026-04-17 04:02 | -29.81352 | 168.56548 | 14440 ft | 344 kts | 322° |
| 2026-04-17 04:03 | -29.79418 | 168.54934 | 14021 ft | 342 kts | 322° |
| 2026-04-17 04:03 | -29.77487 | 168.53324 | 13564 ft | 342 kts | 322° |
| 2026-04-17 04:03 | -29.75570 | 168.51727 | 13130 ft | 340 kts | 322° |
| 2026-04-17 04:03 | -29.73656 | 168.50133 | 12707 ft | 338 kts | 322° |
| 2026-04-17 04:04 | -29.71753 | 168.48549 | 12281 ft | 336 kts | 322° |
| 2026-04-17 04:04 | -29.69860 | 168.46975 | 11881 ft | 334 kts | 322° |
| 2026-04-17 04:04 | -29.67977 | 168.45409 | 11475 ft | 333 kts | 322° |
| 2026-04-17 04:04 | -29.66110 | 168.43856 | 11073 ft | 331 kts | 322° |
| 2026-04-17 04:05 | -29.64258 | 168.42318 | 10882 ft | 323 kts | 322° |
| 2026-04-17 04:05 | -29.62478 | 168.40841 | 10730 ft | 314 kts | 322° |
| 2026-04-17 04:05 | -29.60712 | 168.39375 | 10583 ft | 305 kts | 322° |
| 2026-04-17 04:05 | -29.59034 | 168.37984 | 10455 ft | 297 kts | 322° |
| 2026-04-17 04:06 | -29.57360 | 168.36596 | 10328 ft | 288 kts | 322° |
| 2026-04-17 04:06 | -29.55759 | 168.35269 | 10205 ft | 280 kts | 322° |
| 2026-04-17 04:06 | -29.54219 | 168.33992 | 10083 ft | 273 kts | 322° |
| 2026-04-17 04:06 | -29.52680 | 168.32716 | 9795 ft | 272 kts | 322° |
| 2026-04-17 04:07 | -29.51156 | 168.31452 | 9514 ft | 270 kts | 322° |
| 2026-04-17 04:07 | -29.49636 | 168.30193 | 9244 ft | 268 kts | 322° |
| 2026-04-17 04:07 | -29.48124 | 168.28941 | 8966 ft | 267 kts | 322° |
| 2026-04-17 04:07 | -29.46619 | 168.27695 | 8689 ft | 266 kts | 323° |
| 2026-04-17 04:08 | -29.45122 | 168.26457 | 8418 ft | 264 kts | 323° |
| 2026-04-17 04:08 | -29.43631 | 168.25224 | 8142 ft | 263 kts | 323° |
| 2026-04-17 04:08 | -29.42146 | 168.23996 | 7869 ft | 262 kts | 323° |
| 2026-04-17 04:08 | -29.40673 | 168.22779 | 7600 ft | 261 kts | 323° |
| 2026-04-17 04:09 | -29.39202 | 168.21564 | 7343 ft | 260 kts | 323° |
| 2026-04-17 04:09 | -29.37737 | 168.20355 | 7081 ft | 258 kts | 324° |
| 2026-04-17 04:09 | -29.36280 | 168.19153 | 6839 ft | 257 kts | 324° |
| 2026-04-17 04:09 | -29.34822 | 168.17970 | 6586 ft | 256 kts | 329° |
| 2026-04-17 04:10 | -29.33173 | 168.17333 | 6286 ft | 255 kts | 352° |
| 2026-04-17 04:10 | -29.31416 | 168.17068 | 5994 ft | 255 kts | 352° |
| 2026-04-17 04:10 | -29.29665 | 168.16794 | 5713 ft | 254 kts | 352° |
| 2026-04-17 04:10 | -29.27914 | 168.16514 | 5450 ft | 253 kts | 352° |
| 2026-04-17 04:11 | -29.26170 | 168.16233 | 5185 ft | 252 kts | 352° |
| 2026-04-17 04:11 | -29.24432 | 168.15950 | 4926 ft | 251 kts | 352° |
| 2026-04-17 04:11 | -29.22707 | 168.15667 | 4652 ft | 250 kts | 352° |
| 2026-04-17 04:11 | -29.20993 | 168.15385 | 4491 ft | 245 kts | 352° |
| 2026-04-17 04:12 | -29.19328 | 168.15111 | 4370 ft | 238 kts | 352° |
| 2026-04-17 04:12 | -29.17719 | 168.14846 | 4258 ft | 230 kts | 352° |
| 2026-04-17 04:12 | -29.16157 | 168.14588 | 4160 ft | 224 kts | 352° |
| 2026-04-17 04:12 | -29.14606 | 168.14328 | 4051 ft | 227 kts | 349° |
| 2026-04-17 04:13 | -29.13187 | 168.13568 | 3782 ft | 230 kts | 313° |
| 2026-04-17 04:13 | -29.12356 | 168.12030 | 3610 ft | 227 kts | 296° |
| 2026-04-17 04:13 | -29.11664 | 168.10397 | 3363 ft | 228 kts | 296° |
| 2026-04-17 04:13 | -29.10967 | 168.08768 | 3100 ft | 228 kts | 296° |
| 2026-04-17 04:14 | -29.10269 | 168.07145 | 2850 ft | 227 kts | 296° |
| 2026-04-17 04:14 | -29.09571 | 168.05530 | 2568 ft | 228 kts | 296° |
| 2026-04-17 04:14 | -29.08866 | 168.03898 | 2272 ft | 229 kts | 296° |
| 2026-04-17 04:14 | -29.08174 | 168.02295 | 2133 ft | 224 kts | 296° |
| 2026-04-17 04:15 | -29.07485 | 168.00704 | 2109 ft | 223 kts | 296° |
| 2026-04-17 04:15 | -29.06797 | 167.99116 | 1947 ft | 227 kts | 296° |
| 2026-04-17 04:15 | -29.05988 | 167.97421 | 1108 ft | 249 kts | 298° |
| 2026-04-17 04:15 | -29.05190 | 167.95723 | 702 ft | 236 kts | 299° |
| 2026-04-17 04:16 | -29.04513 | 167.94207 | 1292 ft | 195 kts | 274° |
| 2026-04-17 04:16 | -29.04751 | 167.92818 | 2169 ft | 166 kts | 240° |
| 2026-04-17 04:16 | -29.05542 | 167.91928 | 2257 ft | 163 kts | 201° |
| 2026-04-17 04:16 | -29.06646 | 167.91808 | 2451 ft | 164 kts | 165° |
| 2026-04-17 04:17 | -29.07368 | 167.92123 | 2506 ft | 171 kts | 150° |
| 2026-04-17 04:17 | -29.08238 | 167.93037 | 2727 ft | 172 kts | 118° |
| 2026-04-17 04:17 | -29.08701 | 167.94890 | 2659 ft | 188 kts | 97° |
| 2026-04-17 04:17 | -29.08762 | 167.95874 | 2691 ft | 188 kts | 91° |
| 2026-04-17 04:18 | -29.08929 | 167.97382 | 2618 ft | 195 kts | 102° |
| 2026-04-17 04:18 | -29.09404 | 167.98839 | 2629 ft | 196 kts | 120° |
| 2026-04-17 04:18 | -29.10182 | 168.00100 | 2734 ft | 193 kts | 129° |
| 2026-04-17 04:18 | -29.11084 | 168.01265 | 2668 ft | 200 kts | 132° |
| 2026-04-17 04:19 | -29.12019 | 168.02453 | 2594 ft | 200 kts | 131° |
| 2026-04-17 04:19 | -29.12877 | 168.03685 | 2585 ft | 196 kts | 122° |
| 2026-04-17 04:19 | -29.13182 | 168.05130 | 2472 ft | 185 kts | 79° |
| 2026-04-17 04:19 | -29.12601 | 168.06415 | 2110 ft | 187 kts | 46° |
| 2026-04-17 04:20 | -29.11466 | 168.06972 | 1922 ft | 176 kts | 351° |
| 2026-04-17 04:20 | -29.10549 | 168.06184 | 1588 ft | 175 kts | 299° |
| 2026-04-17 04:20 | -29.10074 | 168.04871 | 1213 ft | 176 kts | 289° |
| 2026-04-17 04:20 | -29.09650 | 168.03615 | 1252 ft | 165 kts | 291° |
| 2026-04-17 04:21 | -29.09249 | 168.02438 | 1406 ft | 146 kts | 290° |
| 2026-04-17 04:21 | -29.08826 | 168.01474 | 1537 ft | 136 kts | 301° |
| 2026-04-17 04:21 | -29.08291 | 168.00523 | 1524 ft | 148 kts | 303° |
| 2026-04-17 04:21 | -29.07717 | 167.99503 | 1468 ft | 161 kts | 302° |
| 2026-04-17 04:22 | -29.07096 | 167.98450 | 1269 ft | 157 kts | 306° |
| 2026-04-17 04:22 | -29.06387 | 167.97493 | 988 ft | 155 kts | 313° |
| 2026-04-17 04:22 | -29.05678 | 167.96608 | 803 ft | 147 kts | 308° |
| 2026-04-17 04:22 | -29.05108 | 167.95652 | 574 ft | 146 kts | 298° |
| 2026-04-17 04:23 | -29.04582 | 167.94666 | 357 ft | 143 kts | 300° |
| 2026-04-17 04:23 | -29.04124 | 167.93845 | 325 ft | 78 kts | 303° |
| 2026-04-17 04:23 | -29.03969 | 167.93587 | 325 ft | 7 kts | 298° |
| 2026-04-17 04:23 | -29.03989 | 167.93594 | 324 ft | 8 kts | 126° |
| 2026-04-17 04:24 | -29.04041 | 167.93700 | 325 ft | 22 kts | 121° |
| 2026-04-17 04:24 | -29.04108 | 167.93817 | 326 ft | 16 kts | 126° |
| 2026-04-17 04:24 | -29.04172 | 167.93964 | 325 ft | 21 kts | 79° |
| 2026-04-17 04:24 | -29.04065 | 167.94123 | 328 ft | 30 kts | 50° |
| 2026-04-17 04:25 | -29.03933 | 167.94294 | 329 ft | 20 kts | 36° |
| 2026-04-17 04:25 | -29.03807 | 167.94333 | 335 ft | 17 kts | 10° |
| 2026-04-17 04:25 | -29.03731 | 167.94349 | 339 ft | 0 kts | 10° |
| 2026-04-17 04:26 | -29.03730 | 167.94349 | 339 ft | 2 kts | 10° |
| 2026-04-17 04:26 | -29.03661 | 167.94365 | 337 ft | 10 kts | 12° |
| 2026-04-17 04:26 | -29.03615 | 167.94373 | 337 ft | 3 kts | 10° |
| 2026-04-17 04:27 | -29.03588 | 167.94383 | 337 ft | 2 kts | 31° |
| 2026-04-17 04:27 | -29.03573 | 167.94397 | 335 ft | 3 kts | 38° |
| 2026-04-17 04:27 | -29.03557 | 167.94394 | 336 ft | 2 kts | 338° |
| 2026-04-17 04:27 | -29.03547 | 167.94386 | 335 ft | 0 kts | 320° |